Time;durP1;ratioP1;P1;durP2;ratioP2;P2;SDS_P1;SDS_P2;PMS_P1;PMS_P2;Temp;Humidity;BMP_temperature;BMP_pressure;BME280_temperature;BME280_humidity;BME280_pressure;Samples;Min_cycle;Max_cycle;Signal;HPM_P1;HPM_P2
2023/07/05 00:00:29;;;;;;;;;;;19.10;99.90;;;;;;7333947;19;109243;-63
2023/07/05 00:02:56;;;;;;;;;;;19.00;99.90;;;;;;7342525;19;108606;-63
2023/07/05 00:05:23;;;;;;;;;;;19.00;99.90;;;;;;7337305;19;108934;-63
2023/07/05 00:07:52;;;;;;;;;;;19.00;99.90;;;;;;7338554;19;109458;-63
2023/07/05 00:10:19;;;;;;;;;;;19.00;99.90;;;;;;7336779;19;109504;-63
2023/07/05 00:12:46;;;;;;;;;;;19.00;99.90;;;;;;7340523;19;110460;-63
2023/07/05 00:15:14;;;;;;;;;;;18.90;99.90;;;;;;7335696;19;110509;-63
2023/07/05 00:17:41;;;;;;;;;;;18.90;99.90;;;;;;7338477;19;110911;-63
2023/07/05 00:20:09;;;;;;;;;;;18.90;99.90;;;;;;7333820;19;110536;-63
2023/07/05 00:22:36;;;;;;;;;;;18.90;99.90;;;;;;7339940;19;109337;-63
2023/07/05 00:25:03;;;;;;;;;;;18.90;99.90;;;;;;7337967;19;110155;-63
2023/07/05 00:27:30;;;;;;;;;;;18.90;99.90;;;;;;7336626;19;109493;-63
2023/07/05 00:29:57;;;;;;;;;;;18.90;99.90;;;;;;7334087;19;109862;-63
2023/07/05 00:32:25;;;;;;;;;;;19.00;99.90;;;;;;7337839;19;109520;-63
2023/07/05 00:34:52;;;;;;;;;;;19.00;99.90;;;;;;7339596;19;110975;-63
2023/07/05 00:37:19;;;;;;;;;;;19.20;99.90;;;;;;7336519;19;109189;-63
2023/07/05 00:39:46;;;;;;;;;;;19.20;99.90;;;;;;7334389;19;111363;-63
2023/07/05 00:42:13;;;;;;;;;;;19.30;99.90;;;;;;7337479;19;108441;-63
2023/07/05 00:44:40;;;;;;;;;;;19.40;99.90;;;;;;7334415;19;108707;-63
2023/07/05 00:47:13;;;;;;;;;;;19.40;99.90;;;;;;7333249;19;110637;-63
2023/07/05 00:49:40;;;;;;;;;;;19.50;99.90;;;;;;7337116;19;109309;-63
2023/07/05 00:52:10;;;;;;;;;;;19.40;99.90;;;;;;7336571;19;109151;-63
2023/07/05 00:54:39;;;;;;;;;;;19.40;99.90;;;;;;7338182;19;110015;-63
2023/07/05 00:57:15;;;;;;;;;;;19.40;99.90;;;;;;7341318;19;110204;-63
2023/07/05 00:59:46;;;;;;;;;;;19.40;99.90;;;;;;7336105;19;110255;-63
2023/07/05 01:02:14;;;;;;;;;;;19.40;99.90;;;;;;7334413;19;109598;-63
2023/07/05 01:04:41;;;;;;;;;;;19.30;99.90;;;;;;7338843;19;108871;-64
2023/07/05 01:07:08;;;;;;;;;;;19.30;99.90;;;;;;7332157;19;109116;-63
2023/07/05 01:09:35;;;;;;;;;;;19.30;99.90;;;;;;7338001;19;108940;-64
2023/07/05 01:12:13;;;;;;;;;;;19.30;99.90;;;;;;7332933;19;109266;-63
2023/07/05 01:14:40;;;;;;;;;;;19.20;99.90;;;;;;7332832;19;108858;-63
2023/07/05 01:17:23;;;;;;;;;;;19.20;99.90;;;;;;7332204;19;110930;-63
2023/07/05 01:19:59;;;;;;;;;;;19.10;99.90;;;;;;7340297;19;109524;-63
2023/07/05 01:22:35;;;;;;;;;;;19.10;99.90;;;;;;7332014;19;111106;-63
2023/07/05 01:25:18;;;;;;;;;;;19.00;99.90;;;;;;7334443;19;111211;-63
2023/07/05 01:28:06;;;;;;;;;;;19.00;99.90;;;;;;7337295;19;110708;-64
2023/07/05 01:30:39;;;;;;;;;;;18.90;99.90;;;;;;7334378;19;109595;-64
2023/07/05 01:33:13;;;;;;;;;;;18.90;99.90;;;;;;7332972;19;108355;-63
2023/07/05 01:35:44;;;;;;;;;;;18.80;99.90;;;;;;7335907;19;109759;-64
2023/07/05 01:38:12;;;;;;;;;;;18.70;99.90;;;;;;7335300;19;108648;-64
2023/07/05 01:40:39;;;;;;;;;;;18.60;99.90;;;;;;7337547;19;110542;-64
2023/07/05 01:43:10;;;;;;;;;;;18.50;99.90;;;;;;7341851;19;110451;-64
2023/07/05 01:45:44;;;;;;;;;;;18.40;99.90;;;;;;7332469;19;112195;-65
2023/07/05 01:48:23;;;;;;;;;;;18.30;99.90;;;;;;7334614;19;109060;-64
2023/07/05 01:51:05;;;;;;;;;;;18.20;99.90;;;;;;7332660;19;109379;-64
2023/07/05 01:53:35;;;;;;;;;;;18.10;99.90;;;;;;7337968;19;108895;-64
2023/07/05 01:56:05;;;;;;;;;;;18.10;99.90;;;;;;7331551;19;110509;-64
2023/07/05 01:58:40;;;;;;;;;;;18.00;99.90;;;;;;7336795;19;119721;-64
2023/07/05 02:01:08;;;;;;;;;;;17.90;99.90;;;;;;7333677;19;108902;-64
2023/07/05 02:03:36;;;;;;;;;;;17.80;99.90;;;;;;7336885;19;109751;-64
2023/07/05 02:06:04;;;;;;;;;;;17.70;99.90;;;;;;7342610;19;108754;-65
2023/07/05 02:08:35;;;;;;;;;;;17.70;99.90;;;;;;7335149;19;109637;-64
2023/07/05 02:11:02;;;;;;;;;;;17.60;99.90;;;;;;7332655;19;109935;-64
2023/07/05 02:13:29;;;;;;;;;;;17.60;99.90;;;;;;7338229;19;108832;-64
2023/07/05 02:15:56;;;;;;;;;;;17.50;99.90;;;;;;7331381;19;109483;-64
2023/07/05 02:18:24;;;;;;;;;;;17.50;99.90;;;;;;7333863;19;108792;-63
2023/07/05 02:20:51;;;;;;;;;;;17.50;99.90;;;;;;7336146;19;111216;-63
2023/07/05 02:23:19;;;;;;;;;;;17.50;99.90;;;;;;7334650;19;109572;-66
2023/07/05 02:25:46;;;;;;;;;;;17.40;99.90;;;;;;7342135;19;108461;-63
2023/07/05 02:28:13;;;;;;;;;;;17.40;99.90;;;;;;7334877;19;110035;-64
2023/07/05 02:30:41;;;;;;;;;;;17.30;99.90;;;;;;7332713;19;108942;-66
2023/07/05 02:33:08;;;;;;;;;;;17.30;99.90;;;;;;7333755;19;109154;-65
2023/07/05 02:35:36;;;;;;;;;;;17.20;99.90;;;;;;7335242;19;110835;-64
2023/07/05 02:38:04;;;;;;;;;;;17.20;99.90;;;;;;7334922;19;109790;-67
2023/07/05 02:40:31;;;;;;;;;;;17.10;99.90;;;;;;7333486;19;109773;-64
2023/07/05 02:42:59;;;;;;;;;;;17.10;99.90;;;;;;7334873;19;109584;-63
2023/07/05 02:45:27;;;;;;;;;;;17.10;99.90;;;;;;7329661;19;111633;-64
2023/07/05 02:47:59;;;;;;;;;;;17.10;99.90;;;;;;7338577;19;109304;-63
2023/07/05 02:50:26;;;;;;;;;;;17.00;99.90;;;;;;7333640;19;108670;-63
2023/07/05 02:52:53;;;;;;;;;;;17.00;99.90;;;;;;7329742;19;110590;-64
2023/07/05 02:55:20;;;;;;;;;;;17.00;99.90;;;;;;7328620;19;110546;-64
2023/07/05 02:57:47;;;;;;;;;;;17.00;99.90;;;;;;7332030;19;110420;-64
2023/07/05 03:00:14;;;;;;;;;;;17.00;99.90;;;;;;7331315;19;111240;-64
2023/07/05 03:02:41;;;;;;;;;;;17.00;99.90;;;;;;7330012;19;109307;-63
2023/07/05 03:05:09;;;;;;;;;;;17.10;99.90;;;;;;7337532;19;108450;-64
2023/07/05 03:07:36;;;;;;;;;;;17.10;99.90;;;;;;7335013;19;108721;-64
2023/07/05 03:10:04;;;;;;;;;;;17.00;99.90;;;;;;7333282;19;109385;-64
2023/07/05 03:12:31;;;;;;;;;;;17.00;99.90;;;;;;7329629;19;110796;-63
2023/07/05 03:14:58;;;;;;;;;;;17.00;99.90;;;;;;7332046;19;109087;-64
2023/07/05 03:17:26;;;;;;;;;;;17.10;99.90;;;;;;7334117;19;108960;-63
2023/07/05 03:19:56;;;;;;;;;;;17.00;99.90;;;;;;7329783;19;112443;-64
2023/07/05 03:22:23;;;;;;;;;;;17.00;99.90;;;;;;7332092;19;109107;-64
2023/07/05 03:24:51;;;;;;;;;;;17.00;99.90;;;;;;7333404;19;109890;-63
2023/07/05 03:27:18;;;;;;;;;;;16.90;99.90;;;;;;7326683;19;112681;-63
2023/07/05 03:29:45;;;;;;;;;;;16.90;99.90;;;;;;7332368;19;109630;-64
2023/07/05 03:32:13;;;;;;;;;;;16.90;99.90;;;;;;7333415;19;109017;-64
2023/07/05 03:34:40;;;;;;;;;;;16.90;99.90;;;;;;7330179;19;109179;-63
2023/07/05 03:37:07;;;;;;;;;;;16.80;99.90;;;;;;7328065;19;110187;-63
2023/07/05 03:39:34;;;;;;;;;;;16.80;99.90;;;;;;7333126;19;108353;-64
2023/07/05 03:42:02;;;;;;;;;;;16.80;99.90;;;;;;7330304;19;111103;-63
2023/07/05 03:44:29;;;;;;;;;;;16.80;99.90;;;;;;7330707;19;108541;-64
2023/07/05 03:46:56;;;;;;;;;;;16.80;99.90;;;;;;7329922;19;108790;-63
2023/07/05 03:49:23;;;;;;;;;;;16.80;99.90;;;;;;7330831;19;112234;-63
2023/07/05 03:51:50;;;;;;;;;;;16.80;99.90;;;;;;7324117;19;108709;-64
2023/07/05 03:54:18;;;;;;;;;;;16.70;99.90;;;;;;7334503;19;109030;-62
2023/07/05 03:56:45;;;;;;;;;;;16.70;99.90;;;;;;7325686;19;109551;-61
2023/07/05 03:59:12;;;;;;;;;;;16.60;99.90;;;;;;7331601;19;110078;-61
2023/07/05 04:01:39;;;;;;;;;;;16.60;99.90;;;;;;7329171;19;109086;-61
2023/07/05 04:04:07;;;;;;;;;;;16.60;99.90;;;;;;7332766;19;109670;-61
2023/07/05 04:06:34;;;;;;;;;;;16.50;99.90;;;;;;7332459;19;109671;-61
2023/07/05 04:09:01;;;;;;;;;;;16.50;99.90;;;;;;7328523;19;109932;-62
2023/07/05 04:11:29;;;;;;;;;;;16.60;99.90;;;;;;7329516;19;109065;-62
2023/07/05 04:13:57;;;;;;;;;;;16.60;99.90;;;;;;7342282;19;108939;-61
2023/07/05 04:16:25;;;;;;;;;;;16.50;99.90;;;;;;7336187;19;108983;-62
2023/07/05 04:18:53;;;;;;;;;;;16.40;99.90;;;;;;7339554;19;109067;-61
2023/07/05 04:21:20;;;;;;;;;;;16.40;99.90;;;;;;7337182;19;110328;-61
2023/07/05 04:23:48;;;;;;;;;;;16.50;99.90;;;;;;7340691;19;112079;-61
2023/07/05 04:26:16;;;;;;;;;;;16.40;99.90;;;;;;7334222;19;109093;-62
2023/07/05 04:28:44;;;;;;;;;;;16.50;99.90;;;;;;7338317;19;109629;-61
2023/07/05 04:31:17;;;;;;;;;;;16.40;99.90;;;;;;7338401;19;108918;-61
2023/07/05 04:33:44;;;;;;;;;;;16.40;99.90;;;;;;7336894;19;108246;-61
2023/07/05 04:36:12;;;;;;;;;;;16.40;99.90;;;;;;7340281;19;109942;-62
2023/07/05 04:38:57;;;;;;;;;;;16.40;99.90;;;;;;7334971;19;108678;-62
2023/07/05 04:41:25;;;;;;;;;;;16.40;99.90;;;;;;7337686;19;112412;-61
2023/07/05 04:43:52;;;;;;;;;;;16.40;99.90;;;;;;7338621;19;109633;-61
2023/07/05 04:46:20;;;;;;;;;;;16.40;99.90;;;;;;7336173;19;108461;-62
2023/07/05 04:48:48;;;;;;;;;;;16.40;99.90;;;;;;7335125;19;109040;-62
2023/07/05 04:51:16;;;;;;;;;;;16.40;99.90;;;;;;7335746;19;110398;-70
2023/07/05 04:53:43;;;;;;;;;;;16.50;99.90;;;;;;7336200;19;109534;-61
2023/07/05 04:56:12;;;;;;;;;;;16.50;99.90;;;;;;7335935;19;109741;-61
2023/07/05 04:58:39;;;;;;;;;;;16.50;99.90;;;;;;7342633;19;110904;-62
2023/07/05 05:01:07;;;;;;;;;;;16.50;99.90;;;;;;7336348;19;109102;-62
2023/07/05 05:03:35;;;;;;;;;;;16.50;99.90;;;;;;7335701;19;110077;-62
2023/07/05 05:06:02;;;;;;;;;;;16.50;99.90;;;;;;7333643;19;110341;-62
2023/07/05 05:08:29;;;;;;;;;;;16.50;99.90;;;;;;7338807;19;110782;-62
2023/07/05 05:10:58;;;;;;;;;;;16.50;99.90;;;;;;7335393;19;108956;-62
2023/07/05 05:13:25;;;;;;;;;;;16.50;99.90;;;;;;7335678;19;109221;-62
2023/07/05 05:15:54;;;;;;;;;;;16.50;99.90;;;;;;7336818;19;109883;-62
2023/07/05 05:18:21;;;;;;;;;;;16.50;99.90;;;;;;7336383;19;108866;-62
2023/07/05 05:20:48;;;;;;;;;;;16.50;99.90;;;;;;7340142;19;109235;-62
2023/07/05 05:23:15;;;;;;;;;;;16.50;99.90;;;;;;7334471;19;108746;-62
2023/07/05 05:25:44;;;;;;;;;;;16.50;99.90;;;;;;7335540;19;108985;-62
2023/07/05 05:28:11;;;;;;;;;;;16.50;99.90;;;;;;7334484;19;109970;-62
2023/07/05 05:30:40;;;;;;;;;;;16.50;99.90;;;;;;7332585;19;108921;-62
2023/07/05 05:33:17;;;;;;;;;;;16.50;99.90;;;;;;7332416;19;110221;-62
2023/07/05 05:35:46;;;;;;;;;;;16.50;99.90;;;;;;7334272;19;110504;-62
2023/07/05 05:38:13;;;;;;;;;;;16.50;99.90;;;;;;7332567;19;109794;-62
2023/07/05 05:40:40;;;;;;;;;;;16.50;99.90;;;;;;7333295;19;109084;-62
2023/07/05 05:43:07;;;;;;;;;;;16.50;99.90;;;;;;7342864;19;110122;-62
2023/07/05 05:45:34;;;;;;;;;;;16.60;99.90;;;;;;7334400;19;109392;-62
2023/07/05 05:48:01;;;;;;;;;;;16.50;99.90;;;;;;7334591;19;109671;-65
2023/07/05 05:50:30;;;;;;;;;;;16.50;99.90;;;;;;7338069;19;109424;-66
2023/07/05 05:52:57;;;;;;;;;;;16.50;99.90;;;;;;7335528;19;108666;-65
2023/07/05 05:55:25;;;;;;;;;;;16.50;99.90;;;;;;7337945;19;110328;-65
2023/07/05 05:57:52;;;;;;;;;;;16.40;99.90;;;;;;7338138;19;108552;-65
2023/07/05 06:00:19;;;;;;;;;;;16.40;99.90;;;;;;7336165;19;110883;-64
2023/07/05 06:02:47;;;;;;;;;;;16.40;99.90;;;;;;7335686;19;110267;-65
2023/07/05 06:05:15;;;;;;;;;;;16.40;99.90;;;;;;7343886;19;108583;-89
2023/07/05 06:07:42;;;;;;;;;;;16.50;99.90;;;;;;7340613;19;110393;-88
2023/07/05 06:10:10;;;;;;;;;;;16.40;99.90;;;;;;7343769;19;108655;-88
2023/07/05 06:12:41;;;;;;;;;;;16.50;99.90;;;;;;7339489;19;110768;-90
2023/07/05 06:15:10;;;;;;;;;;;16.50;99.90;;;;;;7338315;19;110196;-88
2023/07/05 06:17:37;;;;;;;;;;;16.60;99.90;;;;;;7338907;19;108757;-87
2023/07/05 06:20:06;;;;;;;;;;;16.60;99.90;;;;;;7339439;19;108345;-89
2023/07/05 06:22:37;;;;;;;;;;;16.60;99.90;;;;;;7335925;19;110182;-91
2023/07/05 06:25:05;;;;;;;;;;;16.60;99.90;;;;;;7336020;19;108603;-88
2023/07/05 06:27:32;;;;;;;;;;;16.60;99.90;;;;;;7330447;19;113760;-89
2023/07/05 06:29:59;;;;;;;;;;;16.60;99.90;;;;;;7332731;19;110065;-88
2023/07/05 06:32:27;;;;;;;;;;;16.70;99.90;;;;;;7330589;19;112337;-89
2023/07/05 06:34:54;;;;;;;;;;;16.70;99.90;;;;;;7328425;19;109972;-88
2023/07/05 06:37:21;;;;;;;;;;;16.70;99.90;;;;;;7328017;19;108876;-90
2023/07/05 06:39:48;;;;;;;;;;;16.70;99.90;;;;;;7327733;19;109079;-90
2023/07/05 06:42:15;;;;;;;;;;;16.70;99.90;;;;;;7327232;19;110384;-91
2023/07/05 06:44:42;;;;;;;;;;;16.70;99.90;;;;;;7325539;19;108917;-89
2023/07/05 06:47:09;;;;;;;;;;;16.70;99.90;;;;;;7333122;19;111483;-92
2023/07/05 06:49:36;;;;;;;;;;;16.70;99.90;;;;;;7328117;19;109747;-86
2023/07/05 06:52:05;;;;;;;;;;;16.70;99.90;;;;;;7323904;19;110439;-90
2023/07/05 06:54:32;;;;;;;;;;;16.70;99.90;;;;;;7327034;19;111789;-86
2023/07/05 06:57:00;;;;;;;;;;;16.70;99.90;;;;;;7329329;19;110473;-83
2023/07/05 06:59:27;;;;;;;;;;;16.80;99.90;;;;;;7329169;19;109542;-86
2023/07/05 07:01:54;;;;;;;;;;;16.80;99.90;;;;;;7324397;19;111964;-84
2023/07/05 07:04:22;;;;;;;;;;;16.90;99.90;;;;;;7328403;19;110528;-84
2023/07/05 07:06:49;;;;;;;;;;;17.00;99.90;;;;;;7329675;19;110281;-86
2023/07/05 07:09:16;;;;;;;;;;;17.00;99.90;;;;;;7330024;19;111701;-86
2023/07/05 07:11:43;;;;;;;;;;;17.00;99.90;;;;;;7326963;19;109544;-86
2023/07/05 07:14:10;;;;;;;;;;;17.10;99.90;;;;;;7321279;19;110958;-87
2023/07/05 07:16:37;;;;;;;;;;;17.20;99.90;;;;;;7329174;19;110755;-86
2023/07/05 07:19:04;;;;;;;;;;;17.20;99.90;;;;;;7324070;19;111138;-89
2023/07/05 07:21:31;;;;;;;;;;;17.30;99.90;;;;;;7329439;19;112921;-91
2023/07/05 07:23:58;;;;;;;;;;;17.40;99.90;;;;;;7329848;19;109039;-92
2023/07/05 07:26:26;;;;;;;;;;;17.50;99.90;;;;;;7332407;19;108575;-91
2023/07/05 07:28:54;;;;;;;;;;;17.60;99.90;;;;;;7330315;19;113220;-88
2023/07/05 07:31:21;;;;;;;;;;;17.70;99.90;;;;;;7333947;19;108960;-88
2023/07/05 07:33:49;;;;;;;;;;;17.70;99.90;;;;;;7336329;19;110185;-91
2023/07/05 07:36:18;;;;;;;;;;;17.90;99.90;;;;;;7367234;19;107824;-90
2023/07/05 07:38:45;;;;;;;;;;;17.90;99.90;;;;;;7369711;19;108701;-90
2023/07/05 07:41:17;;;;;;;;;;;18.00;99.90;;;;;;7364496;19;109645;-92
2023/07/05 07:43:44;;;;;;;;;;;18.10;99.90;;;;;;7368749;19;107830;-88
2023/07/05 07:46:13;;;;;;;;;;;18.10;99.90;;;;;;7363925;19;110220;-92
2023/07/05 07:48:41;;;;;;;;;;;18.30;99.90;;;;;;7375491;19;108758;-91
2023/07/05 07:51:09;;;;;;;;;;;18.30;99.90;;;;;;7375715;19;108225;-91
2023/07/05 07:53:52;;;;;;;;;;;18.30;99.90;;;;;;7376837;19;110843;-92
2023/07/05 07:56:20;;;;;;;;;;;18.30;99.90;;;;;;7370804;19;108213;-91
2023/07/05 07:58:48;;;;;;;;;;;18.40;99.90;;;;;;7354139;19;108636;-89
2023/07/05 08:01:17;;;;;;;;;;;18.50;99.90;;;;;;7343170;19;113363;-89
2023/07/05 08:03:44;;;;;;;;;;;18.50;99.90;;;;;;7339364;19;109013;-92
2023/07/05 08:06:12;;;;;;;;;;;18.70;99.90;;;;;;7335352;19;109056;-88
2023/07/05 08:08:39;;;;;;;;;;;18.70;99.90;;;;;;7337562;19;110475;-86
2023/07/05 08:11:08;;;;;;;;;;;18.80;99.90;;;;;;7335171;19;109321;-88
2023/07/05 08:13:36;;;;;;;;;;;18.80;99.90;;;;;;7334407;19;110256;-89
2023/07/05 08:16:03;;;;;;;;;;;18.80;99.90;;;;;;7339016;19;110205;-84
2023/07/05 08:18:30;;;;;;;;;;;18.90;99.90;;;;;;7332061;19;111335;-87
2023/07/05 08:20:59;;;;;;;;;;;19.00;99.90;;;;;;7331768;19;112083;-87
2023/07/05 08:23:26;;;;;;;;;;;19.20;99.90;;;;;;7334876;19;108638;-86
2023/07/05 08:25:56;;;;;;;;;;;19.30;99.90;;;;;;7334672;19;109212;-87
2023/07/05 08:28:27;;;;;;;;;;;19.40;99.90;;;;;;7334952;19;110701;-86
2023/07/05 08:30:55;;;;;;;;;;;19.50;99.90;;;;;;7334252;19;108944;-87
2023/07/05 08:33:23;;;;;;;;;;;19.50;99.90;;;;;;7331732;19;110464;-86
2023/07/05 08:36:06;;;;;;;;;;;19.40;99.90;;;;;;7338198;19;110415;-87
2023/07/05 08:38:33;;;;;;;;;;;19.50;99.90;;;;;;7337020;19;110465;-84
2023/07/05 08:41:35;;;;;;;;;;;19.70;99.90;;;;;;7336697;19;109879;-85
2023/07/05 08:44:25;;;;;;;;;;;19.70;99.90;;;;;;7335905;19;108545;-86
2023/07/05 08:47:08;;;;;;;;;;;19.80;99.90;;;;;;7332195;19;109518;-85
2023/07/05 08:49:38;;;;;;;;;;;19.90;99.90;;;;;;7332838;19;112461;-86
2023/07/05 08:52:09;;;;;;;;;;;19.80;99.90;;;;;;7330464;19;109725;-89
2023/07/05 08:54:38;;;;;;;;;;;19.90;99.90;;;;;;7325623;19;111879;-86
2023/07/05 08:57:08;;;;;;;;;;;19.90;99.90;;;;;;7331254;19;110125;-87
2023/07/05 08:59:48;;;;;;;;;;;20.00;99.90;;;;;;7337337;19;108314;-88
2023/07/05 09:02:16;;;;;;;;;;;20.10;99.90;;;;;;7331577;19;109846;-87
2023/07/05 09:04:47;;;;;;;;;;;20.20;99.90;;;;;;7332483;19;108729;-86
2023/07/05 09:07:20;;;;;;;;;;;20.20;99.90;;;;;;7327967;19;109578;-88
2023/07/05 09:09:48;;;;;;;;;;;20.10;99.90;;;;;;7331455;19;109625;-86
2023/07/05 09:12:18;;;;;;;;;;;20.00;99.90;;;;;;7328954;19;109324;-87
2023/07/05 09:15:04;;;;;;;;;;;20.10;99.90;;;;;;7331017;19;110531;-86
2023/07/05 09:17:47;;;;;;;;;;;20.20;99.90;;;;;;7334070;19;110637;-85
2023/07/05 09:20:23;;;;;;;;;;;20.40;99.90;;;;;;7333605;19;108653;-87
2023/07/05 09:22:51;;;;;;;;;;;20.50;99.90;;;;;;7332126;19;109164;-88
2023/07/05 09:25:22;;;;;;;;;;;20.60;99.90;;;;;;7335068;19;108970;-87
2023/07/05 09:28:12;;;;;;;;;;;20.60;99.90;;;;;;7324448;19;110659;-89
2023/07/05 09:30:40;;;;;;;;;;;20.60;99.90;;;;;;7331739;19;110110;-88
2023/07/05 09:33:11;;;;;;;;;;;20.70;99.90;;;;;;7328534;19;108501;-87
2023/07/05 09:35:42;;;;;;;;;;;20.70;99.90;;;;;;7334870;19;110153;-86
2023/07/05 09:38:28;;;;;;;;;;;20.80;99.90;;;;;;7330099;19;110273;-87
2023/07/05 09:41:00;;;;;;;;;;;20.80;99.90;;;;;;7331790;19;108958;-88
2023/07/05 09:43:29;;;;;;;;;;;21.00;99.90;;;;;;7328068;19;108921;-88
2023/07/05 09:46:03;;;;;;;;;;;21.00;99.90;;;;;;7335419;19;110540;-87
2023/07/05 09:48:34;;;;;;;;;;;21.00;99.90;;;;;;7328108;19;109032;-88
2023/07/05 09:51:03;;;;;;;;;;;21.20;99.90;;;;;;7328291;19;109976;-88
2023/07/05 09:53:38;;;;;;;;;;;21.10;99.90;;;;;;7328565;19;110128;-89
2023/07/05 09:56:05;;;;;;;;;;;21.10;99.90;;;;;;7329150;19;108722;-87
2023/07/05 09:58:33;;;;;;;;;;;21.20;99.90;;;;;;7330774;19;109724;-86
2023/07/05 10:01:08;;;;;;;;;;;21.20;99.90;;;;;;7330649;19;108836;-86
2023/07/05 10:03:36;;;;;;;;;;;21.30;99.90;;;;;;7328164;19;109989;-86
2023/07/05 10:06:10;;;;;;;;;;;21.20;99.60;;;;;;7326186;19;109918;-86
2023/07/05 10:14:15;;;;;;;;;;;21.30;98.60;;;;;;7331943;19;108807;-68
2023/07/05 10:16:46;;;;;;;;;;;21.40;99.10;;;;;;7336908;19;109621;-68
2023/07/05 10:19:20;;;;;;;;;;;21.50;98.60;;;;;;7335584;19;110625;-68
2023/07/05 10:21:57;;;;;;;;;;;21.50;98.40;;;;;;7335962;19;109847;-68
2023/07/05 10:24:26;;;;;;;;;;;21.70;97.80;;;;;;7333039;19;109817;-68
2023/07/05 10:27:04;;;;;;;;;;;21.80;97.20;;;;;;7337860;19;109288;-68
2023/07/05 10:29:31;;;;;;;;;;;21.80;98.40;;;;;;7335571;19;109192;-68
2023/07/05 10:32:00;;;;;;;;;;;22.00;97.90;;;;;;7340951;19;109016;-68
2023/07/05 10:34:27;;;;;;;;;;;22.10;97.90;;;;;;7331527;19;109113;-67
2023/07/05 10:36:54;;;;;;;;;;;22.30;97.10;;;;;;7334760;19;108940;-68
2023/07/05 10:39:26;;;;;;;;;;;22.30;97.20;;;;;;7332644;19;110596;-68
2023/07/05 10:41:57;;;;;;;;;;;22.40;96.70;;;;;;7334779;19;108277;-69
2023/07/05 10:44:32;;;;;;;;;;;22.30;96.30;;;;;;7336105;19;109094;-68
2023/07/05 10:46:59;;;;;;;;;;;22.30;95.90;;;;;;7332865;19;110367;-68
2023/07/05 10:49:27;;;;;;;;;;;22.20;96.30;;;;;;7336520;19;108650;-69
2023/07/05 10:51:56;;;;;;;;;;;22.20;96.20;;;;;;7339153;19;108558;-68
2023/07/05 10:54:43;;;;;;;;;;;22.20;95.50;;;;;;7334750;19;108552;-68
2023/07/05 10:57:15;;;;;;;;;;;22.10;94.80;;;;;;7333402;19;108561;-68
2023/07/05 11:00:01;;;;;;;;;;;22.00;95.70;;;;;;7329583;19;109676;-68
2023/07/05 11:02:46;;;;;;;;;;;22.10;96.00;;;;;;7332042;19;108886;-68
2023/07/05 11:05:36;;;;;;;;;;;22.20;96.20;;;;;;7333326;19;109516;-69
2023/07/05 11:08:04;;;;;;;;;;;22.20;95.60;;;;;;7329433;19;110457;-68
2023/07/05 11:10:41;;;;;;;;;;;22.20;94.60;;;;;;7330548;19;108909;-68
2023/07/05 11:13:14;;;;;;;;;;;22.20;95.60;;;;;;7331490;19;109467;-68
2023/07/05 11:15:42;;;;;;;;;;;22.20;95.70;;;;;;7339160;19;110131;-68
2023/07/05 11:18:19;;;;;;;;;;;22.20;97.10;;;;;;7332491;19;109531;-68
2023/07/05 11:20:48;;;;;;;;;;;22.40;96.40;;;;;;7332385;19;109130;-68
2023/07/05 11:23:44;;;;;;;;;;;22.50;96.60;;;;;;7336096;19;108698;-68
2023/07/05 11:26:34;;;;;;;;;;;22.60;97.00;;;;;;7340223;19;109100;-68
2023/07/05 11:29:21;;;;;;;;;;;22.70;97.00;;;;;;7341135;19;110220;-68
2023/07/05 11:31:48;;;;;;;;;;;22.80;97.70;;;;;;7340393;19;109096;-68
2023/07/05 11:34:21;;;;;;;;;;;22.80;97.50;;;;;;7339002;19;108512;-68
2023/07/05 11:37:01;;;;;;;;;;;22.70;96.70;;;;;;7336919;19;110601;-69
2023/07/05 11:39:35;;;;;;;;;;;22.60;97.40;;;;;;7345926;19;108999;-68
2023/07/05 11:42:14;;;;;;;;;;;22.50;97.20;;;;;;7341672;19;109132;-68
2023/07/05 11:44:48;;;;;;;;;;;22.60;97.50;;;;;;7336325;19;108643;-68
2023/07/05 11:47:24;;;;;;;;;;;22.80;97.40;;;;;;7340848;19;109487;-68
2023/07/05 11:49:51;;;;;;;;;;;23.00;96.50;;;;;;7338669;19;110069;-69
2023/07/05 11:52:23;;;;;;;;;;;22.90;95.20;;;;;;7339470;19;108743;-68
2023/07/05 11:54:59;;;;;;;;;;;22.90;95.20;;;;;;7336421;19;109138;-69
2023/07/05 11:57:28;;;;;;;;;;;22.80;95.60;;;;;;7339767;19;109106;-69
2023/07/05 11:59:58;;;;;;;;;;;22.90;95.50;;;;;;7335628;19;110845;-68
2023/07/05 12:02:29;;;;;;;;;;;22.80;95.60;;;;;;7342680;19;108876;-70
2023/07/05 12:04:58;;;;;;;;;;;22.80;95.90;;;;;;7342421;19;108636;-68
2023/07/05 12:07:26;;;;;;;;;;;23.00;95.50;;;;;;7335505;19;110907;-68
2023/07/05 12:09:55;;;;;;;;;;;23.20;95.50;;;;;;7337514;19;109715;-68
2023/07/05 12:12:22;;;;;;;;;;;23.50;95.00;;;;;;7336103;19;108734;-68
2023/07/05 12:14:50;;;;;;;;;;;23.60;94.50;;;;;;7340610;19;108579;-69
2023/07/05 12:17:18;;;;;;;;;;;23.70;94.70;;;;;;7336344;19;110100;-71
2023/07/05 12:19:46;;;;;;;;;;;23.60;93.90;;;;;;7334830;19;110976;-68
2023/07/05 12:22:26;;;;;;;;;;;23.50;93.90;;;;;;7337438;19;110145;-69
2023/07/05 12:24:56;;;;;;;;;;;23.60;94.30;;;;;;7342938;19;111652;-68
2023/07/05 12:27:24;;;;;;;;;;;23.60;94.30;;;;;;7336926;19;108613;-68
2023/07/05 12:29:54;;;;;;;;;;;23.80;94.40;;;;;;7336481;19;109159;-69
2023/07/05 12:32:24;;;;;;;;;;;23.90;93.40;;;;;;7338938;19;108850;-70
2023/07/05 12:35:05;;;;;;;;;;;23.90;93.40;;;;;;7332081;19;111251;-71
2023/07/05 12:37:33;;;;;;;;;;;23.80;93.80;;;;;;7339303;19;109790;-70
2023/07/05 12:40:16;;;;;;;;;;;23.90;93.50;;;;;;7337299;19;108898;-69
2023/07/05 12:42:50;;;;;;;;;;;24.00;93.50;;;;;;7340262;19;109518;-70
2023/07/05 12:45:22;;;;;;;;;;;24.10;93.10;;;;;;7336756;19;109434;-68
2023/07/05 12:47:49;;;;;;;;;;;24.10;93.20;;;;;;7344403;19;110115;-71
2023/07/05 12:50:19;;;;;;;;;;;24.20;93.30;;;;;;7336501;19;109076;-69
2023/07/05 12:52:57;;;;;;;;;;;24.20;92.60;;;;;;7338581;19;109003;-69
2023/07/05 12:55:25;;;;;;;;;;;24.10;93.50;;;;;;7337779;19;108314;-69
2023/07/05 12:57:54;;;;;;;;;;;24.10;93.40;;;;;;7338637;19;109302;-70
2023/07/05 13:00:22;;;;;;;;;;;24.10;92.40;;;;;;7337057;19;110198;-69
2023/07/05 13:02:50;;;;;;;;;;;24.00;92.60;;;;;;7334740;19;108599;-69
2023/07/05 13:05:17;;;;;;;;;;;23.90;93.20;;;;;;7339082;19;110022;-69
2023/07/05 13:07:45;;;;;;;;;;;24.00;93.40;;;;;;7342332;19;108458;-69
2023/07/05 13:10:13;;;;;;;;;;;24.20;93.80;;;;;;7337206;19;111791;-69
2023/07/05 13:12:53;;;;;;;;;;;24.30;92.40;;;;;;7336630;19;110618;-72
2023/07/05 13:15:30;;;;;;;;;;;24.30;92.90;;;;;;7338306;19;108664;-69
2023/07/05 13:18:24;;;;;;;;;;;24.30;92.70;;;;;;7337604;19;110471;-69
2023/07/05 13:21:13;;;;;;;;;;;24.20;92.60;;;;;;7336513;19;112326;-69
2023/07/05 13:23:48;;;;;;;;;;;24.10;92.10;;;;;;7335216;19;109825;-69
2023/07/05 13:26:29;;;;;;;;;;;24.00;92.80;;;;;;7337658;19;109701;-69
2023/07/05 13:28:58;;;;;;;;;;;23.90;92.40;;;;;;7338447;19;108631;-68
2023/07/05 13:31:26;;;;;;;;;;;24.00;93.40;;;;;;7341308;19;109213;-68
2023/07/05 13:33:54;;;;;;;;;;;24.20;94.00;;;;;;7337146;19;110182;-69
2023/07/05 13:36:21;;;;;;;;;;;24.30;93.00;;;;;;7333298;19;109510;-69
2023/07/05 13:38:49;;;;;;;;;;;24.40;93.50;;;;;;7332978;19;109819;-69
2023/07/05 13:41:23;;;;;;;;;;;24.40;92.90;;;;;;7331345;19;109243;-69
2023/07/05 13:43:50;;;;;;;;;;;24.50;92.60;;;;;;7332739;19;109791;-69
2023/07/05 13:46:17;;;;;;;;;;;24.50;92.80;;;;;;7331739;19;109765;-70
2023/07/05 13:48:45;;;;;;;;;;;24.50;92.60;;;;;;7331598;19;109803;-70
2023/07/05 13:51:23;;;;;;;;;;;24.50;92.40;;;;;;7331691;19;109746;-69
2023/07/05 13:53:50;;;;;;;;;;;24.60;92.60;;;;;;7340193;19;109060;-69
2023/07/05 13:56:17;;;;;;;;;;;24.80;92.80;;;;;;7335872;19;109075;-69
2023/07/05 13:58:44;;;;;;;;;;;24.90;92.40;;;;;;7333224;19;109160;-69
2023/07/05 14:01:13;;;;;;;;;;;25.00;92.20;;;;;;7333101;19;109331;-70
2023/07/05 14:03:40;;;;;;;;;;;25.00;91.80;;;;;;7333814;19;109860;-69
2023/07/05 14:06:15;;;;;;;;;;;25.00;92.10;;;;;;7335502;19;108988;-69
2023/07/05 14:08:43;;;;;;;;;;;25.10;92.50;;;;;;7336581;19;108927;-69
2023/07/05 14:11:14;;;;;;;;;;;25.20;92.00;;;;;;7333707;19;110618;-69
2023/07/05 14:13:42;;;;;;;;;;;25.30;91.80;;;;;;7334588;19;109890;-69
2023/07/05 14:16:11;;;;;;;;;;;25.40;91.70;;;;;;7340607;19;108563;-69
2023/07/05 14:18:38;;;;;;;;;;;25.20;90.70;;;;;;7336214;19;109138;-69
2023/07/05 14:21:15;;;;;;;;;;;25.00;91.70;;;;;;7334484;19;108913;-69
2023/07/05 14:23:42;;;;;;;;;;;24.90;92.10;;;;;;7337798;19;108978;-68
2023/07/05 14:26:09;;;;;;;;;;;24.80;91.80;;;;;;7334922;19;109895;-68